createdAt,value
2024-01-19T00:00:48.601Z,3067.00
2024-01-19T00:01:48.646Z,3068.00
2024-01-19T00:02:48.822Z,3065.00
2024-01-19T00:03:48.789Z,3062.00
2024-01-19T00:04:48.860Z,3061.00
2024-01-19T00:05:49.168Z,3065.00
2024-01-19T00:06:49.007Z,3066.00
2024-01-19T00:07:49.088Z,3064.00
2024-01-19T00:08:49.170Z,3067.00
2024-01-19T00:09:49.184Z,3069.00
2024-01-19T00:10:49.272Z,3070.00
2024-01-19T00:11:49.375Z,3070.00
2024-01-19T00:12:49.412Z,3073.00
2024-01-19T00:13:49.482Z,3072.00
2024-01-19T00:14:49.614Z,3072.00
2024-01-19T00:15:49.608Z,3073.00
2024-01-19T00:16:49.686Z,3071.00
2024-01-19T00:17:49.778Z,3072.00
2024-01-19T00:18:49.781Z,3070.00
2024-01-19T00:19:49.850Z,3065.00
2024-01-19T00:20:49.961Z,3061.00
2024-01-19T00:21:50.013Z,3058.00
2024-01-19T00:22:50.104Z,3055.00
2024-01-19T00:23:50.295Z,3054.00
2024-01-19T00:24:50.210Z,3059.00
2024-01-19T00:25:50.322Z,3061.00
2024-01-19T00:26:50.524Z,3057.00
2024-01-19T00:27:50.411Z,3053.00
2024-01-19T00:28:50.491Z,3055.00
2024-01-19T00:29:50.635Z,3055.00
2024-01-19T00:30:50.622Z,3054.00
2024-01-19T00:31:50.685Z,3055.00
2024-01-19T00:32:50.814Z,3052.00
2024-01-19T00:33:50.823Z,3046.00
2024-01-19T00:34:50.955Z,3037.00
2024-01-19T00:35:51.044Z,3034.00
2024-01-19T00:36:51.035Z,3031.00
2024-01-19T00:37:51.151Z,3032.00
2024-01-19T00:38:51.205Z,3029.00
2024-01-19T00:39:51.264Z,3029.00
2024-01-19T00:40:51.312Z,3026.00
2024-01-19T00:41:51.479Z,3028.00
2024-01-19T00:42:51.450Z,3031.00
2024-01-19T00:43:51.522Z,3033.00
2024-01-19T00:44:51.682Z,3036.00
2024-01-19T00:45:51.651Z,3035.00
2024-01-19T00:46:51.718Z,3037.00
2024-01-19T00:47:51.837Z,3034.00
2024-01-19T00:48:51.919Z,3029.00
2024-01-19T00:49:51.906Z,3026.00
2024-01-19T00:50:52.106Z,3020.00
2024-01-19T00:51:52.048Z,3018.00
2024-01-19T00:52:52.112Z,3015.00
2024-01-19T00:53:52.261Z,3020.00
2024-01-19T00:54:52.249Z,3024.00
2024-01-19T00:55:52.327Z,3021.00
2024-01-19T00:56:52.401Z,3019.00
2024-01-19T00:57:52.469Z,3017.00
2024-01-19T00:58:52.528Z,3016.00
2024-01-19T00:59:52.645Z,3013.00
2024-01-19T01:00:52.727Z,3011.00
2024-01-19T01:01:52.721Z,3016.00
2024-01-19T01:02:52.895Z,3014.00
2024-01-19T01:03:52.870Z,3015.00
2024-01-19T01:04:52.938Z,3013.00
2024-01-19T01:05:53.104Z,3010.00
2024-01-19T01:06:53.090Z,3007.00
2024-01-19T01:07:53.158Z,3004.00
2024-01-19T01:08:53.285Z,3006.00
2024-01-19T01:09:53.245Z,3004.00
2024-01-19T01:10:53.316Z,3004.00
2024-01-19T01:11:53.429Z,3002.00
2024-01-19T01:12:53.432Z,3001.00
2024-01-19T01:13:53.499Z,2996.00
2024-01-19T01:14:53.671Z,2997.00
2024-01-19T01:15:53.652Z,2998.00
2024-01-19T01:16:53.687Z,2994.00
2024-01-19T01:17:53.845Z,2990.00
2024-01-19T01:18:53.867Z,2982.00
2024-01-19T01:19:53.882Z,2983.00
2024-01-19T01:20:54.022Z,2977.00
2024-01-19T01:21:54.008Z,2977.00
2024-01-19T01:22:54.067Z,2979.00
2024-01-19T01:23:54.177Z,2982.00
2024-01-19T01:24:54.204Z,2984.00
2024-01-19T01:25:54.288Z,2981.00
2024-01-19T01:26:54.497Z,2979.00
2024-01-19T01:27:54.391Z,2980.00
2024-01-19T01:28:54.480Z,2980.00
2024-01-19T01:29:54.645Z,2981.00
2024-01-19T01:30:54.606Z,2979.00
2024-01-19T01:31:54.667Z,2976.00
2024-01-19T01:32:54.896Z,2974.00
2024-01-19T01:33:54.877Z,2973.00
2024-01-19T01:34:54.883Z,2976.00
2024-01-19T01:35:55.022Z,2979.00
2024-01-19T01:36:55.042Z,2971.00
2024-01-19T01:37:55.067Z,2975.00
2024-01-19T01:38:55.252Z,2977.00
2024-01-19T01:39:55.197Z,2969.00
2024-01-19T01:40:55.291Z,2974.00
2024-01-19T01:41:55.369Z,2969.00
2024-01-19T01:42:55.402Z,2967.00
2024-01-19T01:43:55.462Z,2963.00
2024-01-19T01:44:55.642Z,2965.00
2024-01-19T01:45:55.592Z,2970.00
2024-01-19T01:46:55.665Z,2966.00
2024-01-19T01:47:56.026Z,2964.00
2024-01-19T01:48:55.974Z,2960.00
2024-01-19T01:49:55.939Z,2958.00
2024-01-19T01:50:56.015Z,2962.00
2024-01-19T01:51:56.005Z,2962.00
2024-01-19T01:52:56.068Z,2960.00
2024-01-19T01:53:56.163Z,2960.00
2024-01-19T01:54:56.199Z,2959.00
2024-01-19T01:55:56.274Z,2960.00
2024-01-19T01:56:56.398Z,2962.00
2024-01-19T01:57:56.408Z,2961.00
2024-01-19T01:58:56.497Z,2957.00
2024-01-19T01:59:56.589Z,2958.00
2024-01-19T02:00:56.608Z,2955.00
2024-01-19T02:01:56.662Z,2956.00
2024-01-19T02:02:56.721Z,2955.00
2024-01-19T02:03:56.785Z,2963.00
2024-01-19T02:04:56.870Z,2959.00
2024-01-19T02:06:19.349Z,2957.00
2024-01-19T02:06:57.177Z,2955.00
2024-01-19T02:07:56.989Z,2950.00
2024-01-19T02:08:56.961Z,2951.00
2024-01-19T02:09:56.918Z,2948.00
2024-01-19T02:10:56.969Z,2951.00
2024-01-19T02:11:56.944Z,2953.00
2024-01-19T02:12:56.922Z,2951.00
2024-01-19T02:13:56.945Z,2950.00
2024-01-19T02:14:56.972Z,2944.00
2024-01-19T02:15:56.928Z,2942.00
2024-01-19T02:16:56.974Z,2942.00
2024-01-19T02:17:57.028Z,2941.00
2024-01-19T02:18:57.044Z,2941.00
2024-01-19T02:19:56.928Z,2941.00
2024-01-19T02:20:56.959Z,2940.00
2024-01-19T02:21:57.093Z,2945.00
2024-01-19T02:22:57.017Z,2945.00
2024-01-19T02:23:57.104Z,2947.00
2024-01-19T02:24:57.159Z,2947.00
2024-01-19T02:25:57.206Z,2946.00
2024-01-19T02:26:57.343Z,2946.00
2024-01-19T02:27:57.357Z,2940.00
2024-01-19T02:28:57.406Z,2939.00
2024-01-19T02:29:57.474Z,2937.00
2024-01-19T02:30:57.529Z,2936.00
2024-01-19T02:31:57.601Z,2934.00
2024-01-19T02:32:57.733Z,2937.00
2024-01-19T02:33:57.753Z,2931.00
2024-01-19T02:34:57.813Z,2932.00
2024-01-19T02:35:57.925Z,2930.00
2024-01-19T02:36:57.939Z,2929.00
2024-01-19T02:37:57.985Z,2927.00
2024-01-19T02:38:58.092Z,2925.00
2024-01-19T02:39:58.144Z,2927.00
2024-01-19T02:40:58.191Z,2926.00
2024-01-19T02:41:58.252Z,2925.00
2024-01-19T02:42:58.316Z,2923.00
2024-01-19T02:43:58.388Z,2920.00
2024-01-19T02:44:58.460Z,2923.00
2024-01-19T02:45:58.514Z,2921.00
2024-01-19T02:46:58.585Z,2922.00
2024-01-19T02:47:58.731Z,2915.00
2024-01-19T02:48:58.766Z,2911.00
2024-01-19T02:49:58.786Z,2905.00
2024-01-19T02:50:59.141Z,2903.00
2024-01-19T02:51:58.894Z,2908.00
2024-01-19T02:52:58.988Z,2909.00
2024-01-19T02:53:59.045Z,2914.00
2024-01-19T02:54:59.118Z,2913.00
2024-01-19T02:55:59.702Z,2915.00
2024-01-19T02:56:59.320Z,2918.00
2024-01-19T02:57:59.301Z,2918.00
2024-01-19T02:58:59.378Z,2915.00
2024-01-19T02:59:59.465Z,2911.00
2024-01-19T03:00:59.570Z,2905.00
2024-01-19T03:01:59.582Z,2905.00
2024-01-19T03:02:59.730Z,2909.00
2024-01-19T03:03:59.685Z,2906.00
2024-01-19T03:04:59.827Z,2908.00
2024-01-19T03:05:59.901Z,2912.00
2024-01-19T03:06:59.933Z,2918.00
2024-01-19T03:07:59.967Z,2915.00
2024-01-19T03:09:00.041Z,2914.00
2024-01-19T03:10:00.106Z,2916.00
2024-01-19T03:11:00.195Z,2916.00
2024-01-19T03:12:00.252Z,2910.00
2024-01-19T03:13:00.305Z,2905.00
2024-01-19T03:14:00.359Z,2902.00
2024-01-19T03:15:00.491Z,2896.00
2024-01-19T03:16:00.483Z,2895.00
2024-01-19T03:17:00.526Z,2894.00
2024-01-19T03:18:00.734Z,2896.00
2024-01-19T03:19:00.661Z,2898.00
2024-01-19T03:20:00.742Z,2898.00
2024-01-19T03:21:00.827Z,2895.00
2024-01-19T03:22:00.887Z,2890.00
2024-01-19T03:23:00.936Z,2890.00
2024-01-19T03:24:01.033Z,2885.00
2024-01-19T03:25:01.062Z,2882.00
2024-01-19T03:26:01.201Z,2879.00
2024-01-19T03:27:01.299Z,2879.00
2024-01-19T03:28:01.265Z,2876.00
2024-01-19T03:29:01.328Z,2874.00
2024-01-19T03:30:01.611Z,2875.00
2024-01-19T03:31:01.472Z,2876.00
2024-01-19T03:32:01.530Z,2876.00
2024-01-19T03:33:01.769Z,2878.00
2024-01-19T03:34:01.799Z,2872.00
2024-01-19T03:35:01.748Z,2873.00
2024-01-19T03:37:01.859Z,2876.00
2024-01-19T03:38:01.954Z,2874.00
2024-01-19T03:39:02.037Z,2878.00
2024-01-19T03:40:02.082Z,2881.00
2024-01-19T03:41:02.193Z,2881.00
2024-01-19T03:42:02.287Z,2878.00
2024-01-19T03:43:02.278Z,2878.00
2024-01-19T03:44:02.356Z,2876.00
2024-01-19T03:45:02.500Z,2879.00
2024-01-19T03:46:02.480Z,2880.00
2024-01-19T03:47:02.578Z,2879.00
2024-01-19T03:48:02.755Z,2876.00
2024-01-19T03:49:02.687Z,2873.00
2024-01-19T03:50:02.900Z,2870.00
2024-01-19T03:51:02.855Z,2866.00
2024-01-19T03:52:02.860Z,2868.00
2024-01-19T03:53:02.941Z,2872.00
2024-01-19T03:54:03.057Z,2870.00
2024-01-19T03:55:03.067Z,2863.00
2024-01-19T03:56:03.141Z,2860.00
2024-01-19T03:57:03.219Z,2860.00
2024-01-19T03:58:03.293Z,2858.00
2024-01-19T03:59:03.365Z,2857.00
2024-01-19T04:00:03.442Z,2855.00
2024-01-19T04:01:03.513Z,2853.00
2024-01-19T04:02:03.559Z,2852.00
2024-01-19T04:03:03.778Z,2854.00
2024-01-19T04:04:03.730Z,2854.00
2024-01-19T04:05:03.761Z,2864.00
2024-01-19T04:06:04.029Z,2864.00
2024-01-19T04:07:03.971Z,2863.00
2024-01-19T04:08:03.982Z,2862.00
2024-01-19T04:09:04.059Z,2860.00
2024-01-19T04:10:04.103Z,2857.00
2024-01-19T04:11:04.175Z,2855.00
2024-01-19T04:12:04.255Z,2851.00
2024-01-19T04:13:04.309Z,2849.00
2024-01-19T04:14:04.373Z,2847.00
2024-01-19T04:15:04.513Z,2843.00
2024-01-19T04:16:04.549Z,2843.00
2024-01-19T04:17:04.577Z,2843.00
2024-01-19T04:18:04.785Z,2840.00
2024-01-19T04:19:04.807Z,2841.00
2024-01-19T04:20:04.803Z,2844.00
2024-01-19T04:21:04.932Z,2845.00
2024-01-19T04:22:04.895Z,2842.00
2024-01-19T04:23:04.966Z,2839.00
2024-01-19T04:24:06.033Z,2839.00
2024-01-19T04:25:05.102Z,2841.00
2024-01-19T04:26:05.222Z,2837.00
2024-01-19T04:27:05.265Z,2833.00
2024-01-19T04:28:05.310Z,2837.00
2024-01-19T04:29:05.412Z,2833.00
2024-01-19T04:30:05.460Z,2833.00
2024-01-19T04:31:05.512Z,2835.00
2024-01-19T04:32:05.580Z,2834.00
2024-01-19T04:33:05.854Z,2835.00
2024-01-19T04:34:05.868Z,2839.00
2024-01-19T04:35:05.786Z,2838.00
2024-01-19T04:36:05.928Z,2835.00
2024-01-19T04:37:05.898Z,2836.00
2024-01-19T04:38:05.971Z,2834.00
2024-01-19T04:39:06.016Z,2835.00
2024-01-19T04:40:06.077Z,2836.00
2024-01-19T04:41:06.633Z,2835.00
2024-01-19T04:42:06.176Z,2838.00
2024-01-19T04:43:06.223Z,2836.00
2024-01-19T04:44:06.287Z,2835.00
2024-01-19T04:45:06.396Z,2835.00
2024-01-19T04:46:13.707Z,2844.00
2024-01-19T04:47:13.667Z,2840.00
2024-01-19T04:48:13.799Z,2838.00
2024-01-19T04:49:13.680Z,2836.00
2024-01-19T04:50:13.675Z,2835.00
2024-01-19T04:51:13.677Z,2833.00
2024-01-19T04:52:13.700Z,2833.00
2024-01-19T04:53:13.664Z,2832.00
2024-01-19T04:54:13.683Z,2829.00
2024-01-19T04:55:13.676Z,2832.00
2024-01-19T04:56:13.697Z,2826.00
2024-01-19T04:57:13.671Z,2824.00
2024-01-19T04:58:13.672Z,2822.00
2024-01-19T04:59:13.664Z,2820.00
2024-01-19T05:00:13.680Z,2824.00
2024-01-19T05:01:13.727Z,2822.00
2024-01-19T05:02:14.804Z,2818.00
2024-01-19T05:03:13.701Z,2819.00
2024-01-19T05:04:13.739Z,2817.00
2024-01-19T05:05:13.723Z,2816.00
2024-01-19T05:06:13.749Z,2821.00
2024-01-19T05:07:13.730Z,2820.00
2024-01-19T05:08:13.680Z,2818.00
2024-01-19T05:09:13.689Z,2816.00
2024-01-19T05:10:13.670Z,2812.00
2024-01-19T05:11:13.702Z,2813.00
2024-01-19T05:12:13.680Z,2810.00
2024-01-19T05:13:13.696Z,2811.00
2024-01-19T05:14:13.675Z,2811.00
2024-01-19T05:15:13.688Z,2806.00
2024-01-19T05:16:13.688Z,2804.00
2024-01-19T05:17:13.692Z,2802.00
2024-01-19T05:18:13.749Z,2803.00
2024-01-19T05:19:13.721Z,2800.00
2024-01-19T05:20:13.701Z,2803.00
2024-01-19T05:21:13.712Z,2805.00
2024-01-19T05:22:13.685Z,2806.00
2024-01-19T05:23:13.702Z,2805.00
2024-01-19T05:24:13.687Z,2804.00
2024-01-19T05:25:13.718Z,2803.00
2024-01-19T05:26:13.718Z,2802.00
2024-01-19T05:27:13.699Z,2800.00
2024-01-19T05:28:13.692Z,2800.00
2024-01-19T05:29:13.696Z,2800.00
2024-01-19T05:30:13.687Z,2799.00
2024-01-19T05:31:13.696Z,2796.00
2024-01-19T05:32:13.729Z,2793.00
2024-01-19T05:33:13.806Z,2793.00
2024-01-19T05:34:13.807Z,2788.00
2024-01-19T05:35:13.711Z,2788.00
2024-01-19T05:36:13.700Z,2791.00
2024-01-19T05:37:13.707Z,2790.00
2024-01-19T05:38:13.734Z,2791.00
2024-01-19T05:39:13.691Z,2788.00
2024-01-19T05:40:14.030Z,2787.00
2024-01-19T05:41:13.710Z,2783.00
2024-01-19T05:42:13.707Z,2783.00
2024-01-19T05:43:13.700Z,2782.00
2024-01-19T05:44:13.734Z,2780.00
2024-01-19T05:45:13.741Z,2778.00
2024-01-19T05:46:13.744Z,2775.00
2024-01-19T05:47:13.727Z,2775.00
2024-01-19T05:48:13.761Z,2775.00
2024-01-19T05:49:13.770Z,2772.00
2024-01-19T05:50:13.728Z,2771.00
2024-01-19T05:51:13.716Z,2769.00
2024-01-19T05:52:13.731Z,2774.00
2024-01-19T05:53:13.723Z,2777.00
2024-01-19T05:54:13.719Z,2778.00
2024-01-19T05:55:13.734Z,2778.00
2024-01-19T05:56:13.778Z,2778.00
2024-01-19T05:57:13.723Z,2778.00
2024-01-19T05:58:13.735Z,2776.00
2024-01-19T05:59:13.756Z,2775.00
2024-01-19T06:00:13.825Z,2770.00
2024-01-19T06:01:13.795Z,2768.00
2024-01-19T06:02:13.768Z,2764.00
2024-01-19T06:03:13.835Z,2758.00
2024-01-19T06:04:13.741Z,2757.00
2024-01-19T06:05:13.800Z,2757.00
2024-01-19T06:06:13.802Z,2759.00
2024-01-19T06:07:13.761Z,2757.00
2024-01-19T06:08:13.775Z,2755.00
2024-01-19T06:09:13.739Z,2756.00
2024-01-19T06:10:13.745Z,2754.00
2024-01-19T06:11:13.774Z,2748.00
2024-01-19T06:12:13.741Z,2749.00
2024-01-19T06:13:13.757Z,2747.00
2024-01-19T06:14:13.757Z,2751.00
2024-01-19T06:15:13.756Z,2750.00
2024-01-19T06:16:13.756Z,2749.00
2024-01-19T06:17:13.756Z,2748.00
2024-01-19T06:18:13.835Z,2747.00
2024-01-19T06:19:13.829Z,2746.00
2024-01-19T06:20:13.737Z,2745.00
2024-01-19T06:21:13.770Z,2739.00
2024-01-19T06:22:13.759Z,2739.00
2024-01-19T06:23:13.758Z,2739.00
2024-01-19T06:24:13.783Z,2735.00
2024-01-19T06:25:13.773Z,2735.00
2024-01-19T06:26:13.866Z,2733.00
2024-01-19T06:27:13.766Z,2730.00
2024-01-19T06:28:13.752Z,2729.00
2024-01-19T06:29:13.763Z,2727.00
2024-01-19T06:30:13.787Z,2728.00
2024-01-19T06:31:13.910Z,2731.00
2024-01-19T06:32:13.783Z,2730.00
2024-01-19T06:33:13.908Z,2730.00
2024-01-19T06:34:13.780Z,2730.00
2024-01-19T06:35:13.800Z,2723.00
2024-01-19T06:36:13.958Z,2721.00
2024-01-19T06:37:13.769Z,2719.00
2024-01-19T06:38:13.910Z,2719.00
2024-01-19T06:39:13.802Z,2726.00
2024-01-19T06:40:13.869Z,2810.00
2024-01-19T06:41:13.767Z,2875.00
2024-01-19T06:42:13.812Z,2900.00
2024-01-19T06:43:13.760Z,2914.00
2024-01-19T06:44:13.786Z,2916.00
2024-01-19T06:45:13.848Z,2925.00
2024-01-19T06:46:14.441Z,3000.00
2024-01-19T06:47:13.778Z,3034.00
2024-01-19T06:48:13.930Z,3030.00
2024-01-19T06:49:14.017Z,3026.00
2024-01-19T06:50:13.949Z,3013.00
2024-01-19T06:51:14.087Z,2992.00
2024-01-19T06:52:14.100Z,2938.00
2024-01-19T06:53:14.052Z,2915.00
2024-01-19T06:54:14.127Z,2886.00
2024-01-19T06:55:14.156Z,2871.00
2024-01-19T06:56:14.347Z,2870.00
2024-01-19T06:57:14.402Z,2872.00
2024-01-19T06:58:14.346Z,2868.00
2024-01-19T06:59:14.478Z,2867.00
2024-01-19T07:00:14.592Z,2870.00
2024-01-19T07:01:14.610Z,2869.00
2024-01-19T07:02:14.620Z,2864.00
2024-01-19T07:03:14.730Z,2864.00
2024-01-19T07:04:14.842Z,2868.00
2024-01-19T07:05:14.846Z,2868.00
2024-01-19T07:06:15.036Z,2868.00
2024-01-19T07:07:15.011Z,2869.00
2024-01-19T07:08:14.997Z,2871.00
2024-01-19T07:09:15.069Z,2870.00
2024-01-19T07:10:15.070Z,2873.00
2024-01-19T07:11:15.168Z,2874.00
2024-01-19T07:12:15.140Z,2873.00
2024-01-19T07:13:15.138Z,2870.00
2024-01-19T07:14:15.166Z,2867.00
2024-01-19T07:15:15.304Z,2864.00
2024-01-19T07:16:15.202Z,2862.00
2024-01-19T07:17:16.721Z,2860.00
2024-01-19T07:18:15.281Z,2854.00
2024-01-19T07:19:15.247Z,2855.00
2024-01-19T07:20:15.237Z,2857.00
2024-01-19T07:21:15.417Z,2858.00
2024-01-19T07:22:15.229Z,2859.00
2024-01-19T07:23:15.227Z,2859.00
2024-01-19T07:24:15.316Z,2858.00
2024-01-19T07:25:15.256Z,2853.00
2024-01-19T07:26:15.257Z,2850.00
2024-01-19T07:27:15.868Z,2850.00
2024-01-19T07:28:15.267Z,2850.00
2024-01-19T07:29:15.341Z,2849.00
2024-01-19T07:30:15.296Z,2851.00
2024-01-19T07:31:15.334Z,2850.00
2024-01-19T07:32:15.295Z,2849.00
2024-01-19T07:33:19.904Z,2846.00
2024-01-19T07:34:16.464Z,2845.00
2024-01-19T07:35:15.526Z,2845.00
2024-01-19T07:36:15.402Z,2840.00
2024-01-19T07:37:15.328Z,2839.00
2024-01-19T07:38:15.292Z,2840.00
2024-01-19T07:39:15.388Z,2845.00
2024-01-19T07:40:15.387Z,2839.00
2024-01-19T07:41:15.299Z,2824.00
2024-01-19T07:42:15.366Z,2862.00
2024-01-19T07:43:15.376Z,2932.00
2024-01-19T07:44:15.362Z,2944.00
2024-01-19T07:45:15.311Z,2976.00
2024-01-19T07:46:15.305Z,3062.00
2024-01-19T07:47:15.365Z,3095.00
2024-01-19T07:48:15.496Z,3073.00
2024-01-19T07:49:15.461Z,3067.00
2024-01-19T07:50:15.527Z,3069.00
2024-01-19T07:51:15.578Z,3076.00
2024-01-19T07:52:15.614Z,3110.00
2024-01-19T07:53:15.606Z,3110.00
2024-01-19T07:54:15.649Z,3095.00
2024-01-19T07:55:15.669Z,3263.00
2024-01-19T07:56:15.687Z,3188.00
2024-01-19T07:57:15.740Z,3273.00
2024-01-19T07:58:15.722Z,3407.00
2024-01-19T07:59:15.825Z,3275.00
2024-01-19T08:00:15.887Z,3262.00
2024-01-19T08:01:15.883Z,3284.00
2024-01-19T08:02:15.869Z,3445.00
2024-01-19T08:03:15.859Z,3373.00
2024-01-19T08:04:15.822Z,3436.00
2024-01-19T08:05:16.110Z,3421.00
2024-01-19T08:06:16.035Z,3652.00
2024-01-19T08:07:16.029Z,3649.00
2024-01-19T08:08:16.128Z,3516.00
2024-01-19T08:09:16.206Z,3487.00
2024-01-19T08:10:16.276Z,3515.00
2024-01-19T08:11:16.344Z,3510.00
2024-01-19T08:12:17.205Z,3700.00
2024-01-19T08:13:16.422Z,3591.00
2024-01-19T08:14:16.476Z,3600.00
2024-01-19T08:15:16.532Z,3668.00
2024-01-19T08:16:16.912Z,3589.00
2024-01-19T08:17:16.643Z,3644.00
2024-01-19T08:18:16.859Z,3566.00
2024-01-19T08:19:16.793Z,3563.00
2024-01-19T08:20:16.792Z,3634.00
2024-01-19T08:21:16.858Z,3589.00
2024-01-19T08:22:16.878Z,3593.00
2024-01-19T08:23:17.029Z,3662.00
2024-01-19T08:24:16.915Z,3663.00
2024-01-19T08:25:16.951Z,3666.00
2024-01-19T08:26:17.019Z,3826.00
2024-01-19T08:27:16.977Z,3767.00
2024-01-19T08:28:17.075Z,3755.00
2024-01-19T08:29:17.073Z,3736.00
2024-01-19T08:30:17.066Z,3765.00
2024-01-19T08:31:17.879Z,3846.00
2024-01-19T08:32:17.100Z,3739.00
2024-01-19T08:33:17.393Z,3750.00
2024-01-19T08:34:17.268Z,3754.00
2024-01-19T08:35:17.170Z,3766.00
2024-01-19T08:36:17.201Z,3908.00
2024-01-19T08:37:17.253Z,3928.00
2024-01-19T08:38:17.298Z,3804.00
2024-01-19T08:39:17.338Z,3800.00
2024-01-19T08:40:17.358Z,3802.00
2024-01-19T08:41:17.445Z,3805.00
2024-01-19T08:42:17.361Z,3797.00
2024-01-19T08:43:17.382Z,3788.00
2024-01-19T08:44:17.379Z,3766.00
2024-01-19T08:45:17.451Z,3752.00
2024-01-19T08:46:17.447Z,3740.00
2024-01-19T08:47:17.416Z,3800.00
2024-01-19T08:48:17.729Z,3741.00
2024-01-19T08:49:17.484Z,3705.00
2024-01-19T08:50:17.433Z,3653.00
2024-01-19T08:51:17.893Z,3654.00
2024-01-19T08:52:17.878Z,3616.00
2024-01-19T08:53:17.449Z,3602.00
2024-01-19T08:54:17.468Z,3593.00
2024-01-19T08:55:17.491Z,3498.00
2024-01-19T08:56:17.932Z,3397.00
2024-01-19T08:57:17.574Z,3334.00
2024-01-19T08:58:17.545Z,3457.00
2024-01-19T08:59:17.743Z,3435.00
2024-01-19T09:00:17.707Z,3555.00
2024-01-19T09:01:17.913Z,3553.00
2024-01-19T09:02:17.914Z,3557.00
2024-01-19T09:03:17.846Z,3569.00
2024-01-19T09:04:17.791Z,3575.00
2024-01-19T09:05:17.741Z,3585.00
2024-01-19T09:06:18.221Z,3596.00
2024-01-19T09:07:18.391Z,3611.00
2024-01-19T09:08:17.744Z,3645.00
2024-01-19T09:09:17.741Z,3674.00
2024-01-19T09:10:17.758Z,3696.00
2024-01-19T09:11:17.892Z,3731.00
2024-01-19T09:12:17.848Z,3730.00
2024-01-19T09:13:17.864Z,3735.00
2024-01-19T09:14:17.890Z,3747.00
2024-01-19T09:15:17.893Z,3753.00
2024-01-19T09:16:17.908Z,3762.00
2024-01-19T09:17:17.898Z,3763.00
2024-01-19T09:18:18.011Z,3777.00
2024-01-19T09:19:18.036Z,3983.00
2024-01-19T09:20:18.090Z,3913.00
2024-01-19T09:21:18.142Z,4079.00
2024-01-19T09:22:18.219Z,3893.00
2024-01-19T09:23:18.259Z,3896.00
2024-01-19T09:24:18.332Z,3902.00
2024-01-19T09:25:18.395Z,3910.00
2024-01-19T09:26:18.468Z,3907.00
2024-01-19T09:27:18.544Z,3901.00
2024-01-19T09:28:18.622Z,3806.00
2024-01-19T09:29:18.581Z,3795.00
2024-01-19T09:30:18.586Z,3789.00
2024-01-19T09:31:18.631Z,3789.00
2024-01-19T09:32:18.925Z,3789.00
2024-01-19T09:33:18.664Z,3784.00
2024-01-19T09:34:18.665Z,3780.00
2024-01-19T09:35:18.632Z,3777.00
2024-01-19T09:36:18.666Z,3779.00
2024-01-19T09:37:18.655Z,3777.00
2024-01-19T09:38:18.692Z,3773.00
2024-01-19T09:39:18.708Z,3771.00
2024-01-19T09:40:18.924Z,3771.00
2024-01-19T09:41:18.792Z,3767.00
2024-01-19T09:42:18.819Z,3769.00
2024-01-19T09:43:18.872Z,3897.00
2024-01-19T09:44:18.918Z,3849.00
2024-01-19T09:45:19.576Z,3876.00
2024-01-19T09:46:19.014Z,3900.00
2024-01-19T09:47:19.034Z,3934.00
2024-01-19T09:48:19.175Z,3983.00
2024-01-19T09:49:19.123Z,3998.00
2024-01-19T09:50:19.127Z,3999.00
2024-01-19T09:51:19.135Z,4062.00
2024-01-19T09:52:19.419Z,4063.00
2024-01-19T09:53:19.170Z,4069.00
2024-01-19T09:54:19.185Z,4085.00
2024-01-19T09:55:19.411Z,4084.00
2024-01-19T09:56:19.256Z,4114.00
2024-01-19T09:57:19.220Z,4219.00
2024-01-19T09:58:19.221Z,4304.00
2024-01-19T09:59:19.228Z,4221.00
2024-01-19T10:00:19.287Z,4206.00
2024-01-19T10:01:19.304Z,4208.00
2024-01-19T10:02:19.430Z,4218.00
2024-01-19T10:03:19.340Z,4228.00
2024-01-19T10:04:19.281Z,4246.00
2024-01-19T10:05:19.339Z,4274.00
2024-01-19T10:06:19.346Z,4309.00
2024-01-19T10:07:19.431Z,4313.00
2024-01-19T10:08:19.279Z,4330.00
2024-01-19T10:09:19.312Z,4347.00
2024-01-19T10:10:19.355Z,4416.00
2024-01-19T10:11:19.328Z,4510.00
2024-01-19T10:12:19.364Z,4509.00
2024-01-19T10:13:19.404Z,4491.00
2024-01-19T10:14:19.430Z,4500.00
2024-01-19T10:15:19.492Z,4515.00
2024-01-19T10:16:19.512Z,4521.00
2024-01-19T10:17:19.928Z,4530.00
2024-01-19T10:18:19.750Z,4537.00
2024-01-19T10:19:19.705Z,4607.00
2024-01-19T10:20:19.800Z,4613.00
2024-01-19T10:21:19.820Z,4627.00
2024-01-19T10:22:19.921Z,4640.00
2024-01-19T10:23:19.942Z,4700.00
2024-01-19T10:24:19.996Z,4695.00
2024-01-19T10:25:20.124Z,4703.00
2024-01-19T10:26:20.102Z,4585.00
2024-01-19T10:27:20.163Z,4713.00
2024-01-19T10:28:20.257Z,4605.00
2024-01-19T10:29:20.290Z,4621.00
2024-01-19T10:30:20.372Z,4497.00
2024-01-19T10:31:20.400Z,4568.00
2024-01-19T10:32:20.453Z,4606.00
2024-01-19T10:33:20.577Z,4475.00
2024-01-19T10:34:20.679Z,4469.00
2024-01-19T10:35:20.612Z,3823.00
2024-01-19T10:36:20.716Z,3636.00
2024-01-19T10:37:20.971Z,3614.00
2024-01-19T10:38:20.826Z,3617.00
2024-01-19T10:39:20.912Z,3505.00
2024-01-19T10:40:20.952Z,3388.00
2024-01-19T10:41:21.013Z,3275.00
2024-01-19T10:42:21.424Z,3142.00
2024-01-19T10:43:21.054Z,3133.00
2024-01-19T10:44:21.069Z,3002.00
2024-01-19T10:45:21.051Z,2997.00
2024-01-19T10:46:21.121Z,2992.00
2024-01-19T10:47:21.102Z,2966.00
2024-01-19T10:48:21.210Z,2946.00
2024-01-19T10:49:21.270Z,2904.00
2024-01-19T10:50:21.198Z,2875.00
2024-01-19T10:51:21.251Z,2857.00
2024-01-19T10:52:21.301Z,2840.00
2024-01-19T10:53:21.306Z,2804.00
2024-01-19T10:54:21.337Z,2728.00
2024-01-19T10:55:21.396Z,2711.00
2024-01-19T10:56:21.481Z,2731.00
2024-01-19T10:57:21.487Z,2741.00
2024-01-19T10:58:21.522Z,2731.00
2024-01-19T10:59:21.578Z,2713.00
2024-01-19T11:00:21.626Z,2709.00
2024-01-19T11:01:21.732Z,2715.00
2024-01-19T11:02:21.739Z,2729.00
2024-01-19T11:03:21.790Z,2759.00
2024-01-19T11:04:21.827Z,2765.00
2024-01-19T11:05:21.879Z,2769.00
2024-01-19T11:06:22.061Z,2790.00
2024-01-19T11:07:22.143Z,2830.00
2024-01-19T11:08:22.055Z,2836.00
2024-01-19T11:09:22.084Z,2853.00
2024-01-19T11:10:22.147Z,2867.00
2024-01-19T11:11:22.216Z,2886.00
2024-01-19T11:12:22.281Z,2912.00
2024-01-19T11:13:22.357Z,2928.00
2024-01-19T11:14:22.374Z,2944.00
2024-01-19T11:15:22.447Z,2959.00
2024-01-19T11:16:22.500Z,2968.00
2024-01-19T11:17:22.608Z,2980.00
2024-01-19T11:18:22.781Z,2997.00
2024-01-19T11:19:22.794Z,3015.00
2024-01-19T11:20:22.748Z,3028.00
2024-01-19T11:21:22.870Z,3039.00
2024-01-19T11:22:22.903Z,3058.00
2024-01-19T11:23:22.973Z,3126.00
2024-01-19T11:24:23.039Z,3180.00
2024-01-19T11:25:23.081Z,3180.00
2024-01-19T11:26:23.126Z,3166.00
2024-01-19T11:27:23.185Z,3177.00
2024-01-19T11:28:23.243Z,3214.00
2024-01-19T11:29:23.290Z,3252.00
2024-01-19T11:30:23.412Z,3259.00
2024-01-19T11:31:23.418Z,3257.00
2024-01-19T11:32:23.588Z,3275.00
2024-01-19T11:33:23.659Z,3284.00
2024-01-19T11:34:24.504Z,3286.00
2024-01-19T11:35:23.691Z,3297.00
2024-01-19T11:36:23.731Z,3310.00
2024-01-19T11:37:23.970Z,3338.00
2024-01-19T11:38:23.857Z,3375.00
2024-01-19T11:39:23.919Z,3383.00
2024-01-19T11:40:24.065Z,3397.00
2024-01-19T11:41:24.070Z,3415.00
2024-01-19T11:42:24.482Z,3414.00
2024-01-19T11:43:24.182Z,3416.00
2024-01-19T11:44:24.220Z,3420.00
2024-01-19T11:45:24.290Z,3412.00
2024-01-19T11:46:24.365Z,3431.00
2024-01-19T11:47:24.533Z,3460.00
2024-01-19T11:48:24.585Z,3460.00
2024-01-19T11:49:24.611Z,3462.00
2024-01-19T11:50:24.648Z,3348.00
2024-01-19T11:51:24.682Z,3333.00
2024-01-19T11:52:24.742Z,3300.00
2024-01-19T11:53:24.788Z,3275.00
2024-01-19T11:54:24.883Z,3184.00
2024-01-19T11:55:24.940Z,3196.00
2024-01-19T11:56:25.068Z,3180.00
2024-01-19T11:57:25.042Z,3166.00
2024-01-19T11:58:25.138Z,3147.00
2024-01-19T11:59:25.270Z,3148.00
2024-01-19T12:00:25.236Z,3142.00
2024-01-19T12:01:25.332Z,3132.00
2024-01-19T12:02:25.368Z,3257.00
2024-01-19T12:03:25.444Z,3226.00
2024-01-19T12:04:25.534Z,3170.00
2024-01-19T12:05:25.658Z,3140.00
2024-01-19T12:06:25.675Z,3108.00
2024-01-19T12:07:25.986Z,3030.00